createdAt,value
2023-01-30T00:01:56.922Z,-1.06
2023-01-30T00:04:24.697Z,-1.07
2023-01-30T00:06:52.406Z,-1.09
2023-01-30T00:09:20.059Z,-1.10
2023-01-30T00:11:47.947Z,-1.10
2023-01-30T00:14:15.722Z,-1.09
2023-01-30T00:16:43.925Z,-1.14
2023-01-30T00:19:11.668Z,-1.16
2023-01-30T00:21:39.485Z,-1.21
2023-01-30T00:24:07.450Z,-1.31
2023-01-30T00:26:35.178Z,-1.31
2023-01-30T00:29:02.927Z,-1.26
2023-01-30T00:31:30.639Z,-1.25
2023-01-30T00:33:58.307Z,-1.21
2023-01-30T00:36:26.052Z,-1.17
2023-01-30T00:38:53.759Z,-1.18
2023-01-30T00:41:21.671Z,-1.15
2023-01-30T00:44:08.163Z,-1.05
2023-01-30T00:46:54.655Z,-1.04
2023-01-30T00:49:22.517Z,-1.02
2023-01-30T00:51:50.244Z,-1.05
2023-01-30T00:54:17.935Z,-1.07
2023-01-30T00:56:45.618Z,-1.06
2023-01-30T00:59:13.333Z,-1.05
2023-01-30T01:01:41.145Z,-1.00
2023-01-30T01:04:11.534Z,-0.98
2023-01-30T01:06:39.880Z,-0.92
2023-01-30T01:09:08.287Z,-0.91
2023-01-30T01:11:36.429Z,-0.90
2023-01-30T01:14:06.479Z,-0.87
2023-01-30T01:16:36.204Z,-0.89
2023-01-30T01:19:04.761Z,-0.86
2023-01-30T01:21:32.496Z,-0.90
2023-01-30T01:24:01.828Z,-0.93
2023-01-30T01:26:29.623Z,-0.97
2023-01-30T01:28:58.827Z,-1.03
2023-01-30T01:31:27.663Z,-1.08
2023-01-30T01:33:55.349Z,-1.11
2023-01-30T01:39:10.837Z,-1.14
2023-01-30T01:41:38.747Z,-1.18
2023-01-30T01:44:10.646Z,-1.21
2023-01-30T01:46:41.546Z,-1.28
2023-01-30T01:49:29.793Z,-1.24
2023-01-30T01:52:18.480Z,-1.26
2023-01-30T01:54:51.484Z,-1.31
2023-01-30T01:57:25.183Z,-1.33
2023-01-30T01:59:58.799Z,-1.32
2023-01-30T02:02:27.243Z,-1.34
2023-01-30T02:05:05.635Z,-1.35
2023-01-30T02:07:40.535Z,-1.36
2023-01-30T02:10:11.488Z,-1.37
2023-01-30T02:12:40.476Z,-1.41
2023-01-30T02:15:08.738Z,-1.42
2023-01-30T02:17:36.411Z,-1.37
2023-01-30T02:20:06.981Z,-1.39
2023-01-30T02:22:49.689Z,-1.38
2023-01-30T02:26:01.335Z,-1.36
2023-01-30T02:29:05.837Z,-1.30
2023-01-30T02:31:42.173Z,-1.29
2023-01-30T02:34:38.071Z,-1.29
2023-01-30T02:37:29.285Z,-1.27
2023-01-30T02:40:12.863Z,-1.27
2023-01-30T02:43:18.002Z,-1.27
2023-01-30T02:45:51.978Z,-1.22
2023-01-30T02:48:33.934Z,-1.22
2023-01-30T02:51:08.592Z,-1.20
2023-01-30T02:53:37.733Z,-1.18
2023-01-30T02:56:05.682Z,-1.17
2023-01-30T02:58:44.039Z,-1.16
2023-01-30T03:01:40.320Z,-1.16
2023-01-30T03:04:19.550Z,-1.24
2023-01-30T03:07:08.978Z,-1.26
2023-01-30T03:10:10.986Z,-1.27
2023-01-30T03:13:05.445Z,-1.30
2023-01-30T03:15:43.414Z,-1.33
2023-01-30T03:18:11.235Z,-1.37
2023-01-30T03:20:41.107Z,-1.40
2023-01-30T03:23:09.513Z,-1.48
2023-01-30T03:25:40.715Z,-1.51
2023-01-30T03:28:09.402Z,-1.53
2023-01-30T03:30:37.139Z,-1.55
2023-01-30T03:33:04.909Z,-1.52
2023-01-30T03:35:32.661Z,-1.48
2023-01-30T03:38:00.438Z,-1.45
2023-01-30T03:40:28.271Z,-1.42
2023-01-30T03:42:55.954Z,-1.41
2023-01-30T03:45:23.635Z,-1.38
2023-01-30T03:47:51.345Z,-1.36
2023-01-30T03:50:19.370Z,-1.35
2023-01-30T03:52:47.181Z,-1.34
2023-01-30T03:55:15.002Z,-1.35
2023-01-30T03:57:42.690Z,-1.32
2023-01-30T04:00:11.014Z,-1.27
2023-01-30T04:02:39.813Z,-1.27
2023-01-30T04:05:07.799Z,-1.28
2023-01-30T04:07:35.492Z,-1.25
2023-01-30T04:10:03.123Z,-1.24
2023-01-30T04:12:30.765Z,-1.25
2023-01-30T04:14:58.468Z,-1.27
2023-01-30T04:17:26.171Z,-1.29
2023-01-30T04:19:53.776Z,-1.26
2023-01-30T04:22:21.494Z,-1.25
2023-01-30T04:24:49.157Z,-1.33
2023-01-30T04:27:16.947Z,-1.36
2023-01-30T04:29:44.924Z,-1.35
2023-01-30T04:32:12.650Z,-1.37
2023-01-30T04:34:40.273Z,-1.35
2023-01-30T04:37:08.005Z,-1.35
2023-01-30T04:39:35.705Z,-1.35
2023-01-30T04:42:03.439Z,-1.36
2023-01-30T04:44:31.255Z,-1.39
2023-01-30T04:46:59.036Z,-1.44
2023-01-30T04:49:26.776Z,-1.44
2023-01-30T04:51:54.505Z,-1.44
2023-01-30T04:54:22.298Z,-1.55
2023-01-30T04:56:49.978Z,-1.55
2023-01-30T04:59:17.741Z,-1.57
2023-01-30T05:01:45.554Z,-1.59
2023-01-30T05:04:13.933Z,-1.62
2023-01-30T05:06:41.994Z,-1.60
2023-01-30T05:09:09.824Z,-1.62
2023-01-30T05:11:37.642Z,-1.67
2023-01-30T05:14:05.435Z,-1.70
2023-01-30T05:16:33.241Z,-1.72
2023-01-30T05:19:01.006Z,-1.74
2023-01-30T05:21:29.831Z,-1.73
2023-01-30T05:23:58.745Z,-1.73
2023-01-30T05:26:26.666Z,-1.76
2023-01-30T05:28:56.674Z,-1.77
2023-01-30T05:31:24.835Z,-1.77
2023-01-30T05:33:53.562Z,-1.78
2023-01-30T05:36:23.183Z,-1.77
2023-01-30T05:38:51.213Z,-1.76
2023-01-30T05:41:19.375Z,-1.73
2023-01-30T05:43:51.469Z,-1.76
2023-01-30T05:46:19.512Z,-1.76
2023-01-30T05:48:47.430Z,-1.79
2023-01-30T05:51:24.083Z,-1.84
2023-01-30T05:53:52.503Z,-1.83
2023-01-30T05:56:20.917Z,-1.88
2023-01-30T05:58:53.756Z,-1.89
2023-01-30T06:01:22.744Z,-1.87
2023-01-30T06:03:50.866Z,-1.88
2023-01-30T06:06:18.655Z,-1.86
2023-01-30T06:08:46.711Z,-1.83
2023-01-30T06:11:18.503Z,-1.79
2023-01-30T06:13:46.462Z,-1.75
2023-01-30T06:16:16.361Z,-1.73
2023-01-30T06:18:44.670Z,-1.73
2023-01-30T06:21:12.368Z,-1.70
2023-01-30T06:23:40.173Z,-1.70
2023-01-30T06:26:09.269Z,-1.71
2023-01-30T06:28:37.616Z,-1.70
2023-01-30T06:31:08.453Z,-1.68
2023-01-30T06:33:36.518Z,-1.67
2023-01-30T06:36:04.611Z,-1.65
2023-01-30T06:38:32.350Z,-1.66
2023-01-30T06:41:00.314Z,-1.67
2023-01-30T06:43:28.241Z,-1.67
2023-01-30T06:45:55.885Z,-1.64
2023-01-30T06:48:23.610Z,-1.64
2023-01-30T06:50:51.371Z,-1.64
2023-01-30T06:53:19.112Z,-1.69
2023-01-30T06:55:46.873Z,-1.60
2023-01-30T06:58:16.071Z,-1.56
2023-01-30T07:00:44.575Z,-1.21
2023-01-30T07:03:17.146Z,-1.19
2023-01-30T07:05:46.248Z,-0.95
2023-01-30T07:08:14.290Z,-0.94
2023-01-30T07:10:42.929Z,-0.94
2023-01-30T07:13:10.752Z,-1.00
2023-01-30T07:15:38.722Z,-1.04
2023-01-30T07:18:06.634Z,-1.11
2023-01-30T07:20:34.512Z,-1.16
2023-01-30T07:23:02.344Z,-1.18
2023-01-30T07:25:30.774Z,-1.21
2023-01-30T07:28:01.168Z,-1.27
2023-01-30T07:30:30.833Z,-1.37
2023-01-30T07:33:00.023Z,-1.41
2023-01-30T07:35:30.916Z,-1.43
2023-01-30T07:37:59.305Z,-1.44
2023-01-30T07:40:27.347Z,-1.46
2023-01-30T07:43:11.066Z,-1.50
2023-01-30T07:45:38.736Z,-1.46
2023-01-30T07:48:07.096Z,-1.46
2023-01-30T07:50:35.196Z,-1.49
2023-01-30T07:53:07.207Z,-1.50
2023-01-30T07:55:35.725Z,-1.48
2023-01-30T07:58:03.887Z,-1.48
2023-01-30T08:00:31.939Z,-1.45
2023-01-30T08:03:00.009Z,-1.47
2023-01-30T08:05:28.195Z,-1.45
2023-01-30T08:07:58.748Z,-1.37
2023-01-30T08:10:26.482Z,-1.37
2023-01-30T08:12:54.183Z,-1.33
2023-01-30T08:15:22.925Z,-1.29
2023-01-30T08:18:00.313Z,-1.32
2023-01-30T08:20:28.808Z,-1.30
2023-01-30T08:22:57.421Z,-1.21
2023-01-30T08:25:25.132Z,-1.12
2023-01-30T08:27:53.178Z,-1.09
2023-01-30T08:30:23.793Z,-1.04
2023-01-30T08:32:51.564Z,-0.98
2023-01-30T08:35:19.646Z,-0.91
2023-01-30T08:37:47.375Z,-0.87
2023-01-30T08:40:16.179Z,-0.96
2023-01-30T08:42:47.384Z,-1.00
2023-01-30T08:45:15.474Z,-0.99
2023-01-30T08:47:43.383Z,-1.03
2023-01-30T08:50:11.877Z,-1.03
2023-01-30T08:52:39.705Z,-1.03
2023-01-30T08:55:07.702Z,-0.99
2023-01-30T08:57:35.420Z,-1.04
2023-01-30T09:00:03.600Z,-1.06
2023-01-30T09:02:31.346Z,-1.05
2023-01-30T09:04:59.027Z,-1.07
2023-01-30T09:07:27.175Z,-1.06
2023-01-30T09:09:54.904Z,-1.03
2023-01-30T09:12:22.999Z,-1.04
2023-01-30T09:14:50.721Z,-1.01
2023-01-30T09:17:18.401Z,-0.93
2023-01-30T09:19:46.183Z,-0.91
2023-01-30T09:22:13.911Z,-0.90
2023-01-30T09:24:41.581Z,-0.87
2023-01-30T09:27:09.348Z,-0.81
2023-01-30T09:29:37.017Z,-0.79
2023-01-30T09:32:04.990Z,-0.71
2023-01-30T09:34:32.653Z,-0.65
2023-01-30T09:37:05.131Z,-0.57
2023-01-30T09:39:32.950Z,-0.45
2023-01-30T09:42:06.606Z,-0.45
2023-01-30T09:45:11.615Z,-0.43
2023-01-30T09:47:39.843Z,-0.35
2023-01-30T09:50:25.117Z,-0.36
2023-01-30T09:52:56.028Z,-0.29
2023-01-30T09:55:27.836Z,-0.18
2023-01-30T09:57:55.734Z,-0.10
2023-01-30T10:00:44.647Z,-0.02
2023-01-30T10:03:20.218Z,0.07
2023-01-30T10:05:55.863Z,0.07
2023-01-30T10:08:50.891Z,0.12
2023-01-30T10:11:18.571Z,0.21
2023-01-30T10:14:11.759Z,0.33
2023-01-30T10:16:59.900Z,0.41
2023-01-30T10:19:45.690Z,0.54
2023-01-30T10:22:37.499Z,0.60
2023-01-30T10:25:23.987Z,0.72
2023-01-30T10:28:18.363Z,0.82
2023-01-30T10:30:52.292Z,0.82
2023-01-30T10:33:29.116Z,0.89
2023-01-30T10:36:12.071Z,0.91
2023-01-30T10:38:49.948Z,1.02
2023-01-30T10:41:39.523Z,1.05
2023-01-30T10:44:11.359Z,1.20
2023-01-30T10:47:00.685Z,1.31
2023-01-30T10:49:50.953Z,1.37
2023-01-30T10:53:15.942Z,1.42
2023-01-30T10:55:49.603Z,1.51
2023-01-30T10:58:33.654Z,1.49
2023-01-30T11:01:08.142Z,1.53
2023-01-30T11:03:35.789Z,1.57
2023-01-30T11:06:14.505Z,1.61
2023-01-30T11:08:42.318Z,1.63
2023-01-30T11:11:48.506Z,1.65
2023-01-30T11:14:16.636Z,1.70
2023-01-30T11:16:51.092Z,1.78
2023-01-30T11:19:26.452Z,1.81
2023-01-30T11:21:57.744Z,1.84
2023-01-30T11:24:31.544Z,1.91
2023-01-30T11:27:18.101Z,2.00
2023-01-30T11:29:45.897Z,2.07
2023-01-30T11:32:20.874Z,2.09
2023-01-30T11:35:08.549Z,2.13
2023-01-30T11:37:42.725Z,2.14
2023-01-30T11:40:19.913Z,2.25
2023-01-30T11:43:05.316Z,2.36
2023-01-30T11:45:43.039Z,2.43
2023-01-30T11:48:34.132Z,2.53
2023-01-30T11:51:11.993Z,2.53
2023-01-30T11:53:44.947Z,2.57
2023-01-30T11:56:53.194Z,2.72
2023-01-30T11:59:56.060Z,2.83
2023-01-30T12:02:32.892Z,2.89
2023-01-30T12:05:06.538Z,3.02
2023-01-30T12:07:38.779Z,3.12
2023-01-30T12:10:42.419Z,3.24
2023-01-30T12:13:26.963Z,3.30
2023-01-30T12:16:28.014Z,3.33
2023-01-30T12:19:16.196Z,3.35
2023-01-30T12:21:53.605Z,3.34
2023-01-30T12:24:33.458Z,3.32
2023-01-30T12:27:21.181Z,3.24
2023-01-30T12:29:54.936Z,3.15
2023-01-30T12:32:27.474Z,3.13
2023-01-30T12:34:55.552Z,3.11
2023-01-30T12:37:46.364Z,3.06
2023-01-30T12:40:26.090Z,3.08
2023-01-30T12:43:15.235Z,3.04
2023-01-30T12:46:21.793Z,3.07
2023-01-30T12:52:05.757Z,2.98
2023-01-30T12:54:49.450Z,3.02
2023-01-30T12:57:32.830Z,3.06
2023-01-30T13:00:26.348Z,3.01
2023-01-30T13:03:01.864Z,3.01
2023-01-30T13:05:45.762Z,2.92
2023-01-30T13:08:38.117Z,2.91
2023-01-30T13:11:08.385Z,2.86
2023-01-30T13:13:47.161Z,2.87
2023-01-30T13:16:28.673Z,2.89
2023-01-30T13:19:07.008Z,2.89
2023-01-30T13:21:51.915Z,2.85
2023-01-30T13:24:47.401Z,2.89
2023-01-30T13:27:22.453Z,2.89
2023-01-30T13:29:51.530Z,2.87
2023-01-30T13:32:37.161Z,2.89
2023-01-30T13:37:12.314Z,2.91
2023-01-30T13:39:53.924Z,2.91
2023-01-30T13:42:31.091Z,2.92
2023-01-30T13:45:00.699Z,2.92
2023-01-30T13:47:52.232Z,2.98
2023-01-30T13:50:28.401Z,3.02
2023-01-30T13:53:07.791Z,3.03
2023-01-30T13:55:46.992Z,3.06
2023-01-30T13:58:36.611Z,3.11
2023-01-30T14:01:04.603Z,3.12
2023-01-30T14:03:36.367Z,3.15
2023-01-30T14:06:08.939Z,3.18
2023-01-30T14:08:42.411Z,3.25
2023-01-30T14:11:40.089Z,3.27
2023-01-30T14:14:29.435Z,3.27
2023-01-30T14:17:20.760Z,3.27
2023-01-30T14:19:59.079Z,3.30
2023-01-30T14:22:33.621Z,3.35
2023-01-30T14:25:26.265Z,3.37
2023-01-30T14:27:54.800Z,3.40
2023-01-30T14:30:50.524Z,3.43
2023-01-30T14:33:24.426Z,3.52
2023-01-30T14:36:04.163Z,3.58
2023-01-30T14:38:32.750Z,3.56
2023-01-30T14:41:00.725Z,3.56
2023-01-30T14:43:45.071Z,3.57
2023-01-30T14:46:18.822Z,3.55
2023-01-30T14:48:58.624Z,3.54
2023-01-30T14:51:36.071Z,3.57
2023-01-30T14:54:15.607Z,3.59
2023-01-30T14:57:17.341Z,3.62
2023-01-30T15:00:14.387Z,3.63
2023-01-30T15:02:50.254Z,3.62
2023-01-30T15:05:28.621Z,3.61
2023-01-30T15:08:20.274Z,3.63
2023-01-30T15:11:31.647Z,3.55
2023-01-30T15:14:13.040Z,3.56
2023-01-30T15:16:46.905Z,3.57
2023-01-30T15:19:49.991Z,3.58
2023-01-30T15:22:43.204Z,3.60
2023-01-30T15:25:10.832Z,3.59
2023-01-30T15:28:03.131Z,3.60
2023-01-30T15:30:58.284Z,3.57
2023-01-30T15:33:31.717Z,3.55
2023-01-30T15:36:00.634Z,3.49
2023-01-30T15:38:32.728Z,3.51
2023-01-30T15:41:05.948Z,3.46
2023-01-30T15:43:47.315Z,3.41
2023-01-30T15:46:23.105Z,3.39
2023-01-30T15:49:02.676Z,3.34
2023-01-30T15:51:33.188Z,3.34
2023-01-30T15:54:03.964Z,3.29
2023-01-30T15:56:33.173Z,3.29
2023-01-30T15:59:02.919Z,3.25
2023-01-30T16:01:31.377Z,3.28
2023-01-30T16:04:01.359Z,3.23
2023-01-30T16:06:35.347Z,3.20
2023-01-30T16:09:24.733Z,3.16
2023-01-30T16:11:52.767Z,3.02
2023-01-30T16:14:23.153Z,2.98
2023-01-30T16:17:04.890Z,2.99
2023-01-30T16:19:39.072Z,2.97
2023-01-30T16:22:16.869Z,2.95
2023-01-30T16:24:48.212Z,2.90
2023-01-30T16:27:30.383Z,2.89
2023-01-30T16:30:02.628Z,2.85
2023-01-30T16:32:33.026Z,2.84
2023-01-30T16:35:27.335Z,2.80
2023-01-30T16:37:58.171Z,2.74
2023-01-30T16:40:28.566Z,2.72
2023-01-30T16:43:04.500Z,2.71
2023-01-30T16:45:34.989Z,2.64
2023-01-30T16:48:34.396Z,2.62
2023-01-30T16:51:02.015Z,2.61
2023-01-30T16:53:32.169Z,2.59
2023-01-30T16:56:02.730Z,2.58
2023-01-30T16:58:36.005Z,2.57
2023-01-30T17:01:07.137Z,2.51
2023-01-30T17:03:38.282Z,2.46
2023-01-30T17:06:17.348Z,2.44
2023-01-30T17:08:56.535Z,2.41
2023-01-30T17:11:53.417Z,2.40
2023-01-30T17:14:27.112Z,2.39
2023-01-30T17:17:08.782Z,2.33
2023-01-30T17:19:37.542Z,2.36
2023-01-30T17:22:17.187Z,2.34
2023-01-30T17:24:44.986Z,2.36
2023-01-30T17:27:12.904Z,2.36
2023-01-30T17:29:43.334Z,2.45
2023-01-30T17:32:14.594Z,2.48
2023-01-30T17:34:42.629Z,2.51
2023-01-30T17:37:17.395Z,2.49
2023-01-30T17:39:46.768Z,2.51
2023-01-30T17:42:15.927Z,2.47
2023-01-30T17:44:43.612Z,2.47
2023-01-30T17:47:13.314Z,2.42
2023-01-30T17:49:41.434Z,2.34
2023-01-30T17:52:14.785Z,2.34
2023-01-30T17:54:42.588Z,2.34
2023-01-30T17:57:16.664Z,2.35
2023-01-30T17:59:44.533Z,2.32
2023-01-30T18:02:12.263Z,2.31
2023-01-30T18:04:42.912Z,2.35
2023-01-30T18:07:15.239Z,2.36
2023-01-30T18:09:43.133Z,2.40
2023-01-30T18:12:10.845Z,2.40
2023-01-30T18:14:38.570Z,2.42
2023-01-30T18:17:06.575Z,2.37
2023-01-30T18:19:34.369Z,2.39
2023-01-30T18:22:02.129Z,2.38
2023-01-30T18:24:29.811Z,2.39
2023-01-30T18:26:59.114Z,2.36
2023-01-30T18:29:28.121Z,2.30
2023-01-30T18:31:55.808Z,2.28
2023-01-30T18:34:23.565Z,2.30
2023-01-30T18:36:51.386Z,2.29
2023-01-30T18:39:19.198Z,2.27
2023-01-30T18:41:46.986Z,2.26
2023-01-30T18:44:14.642Z,2.21
2023-01-30T18:46:42.631Z,2.20
2023-01-30T18:49:10.316Z,2.17
2023-01-30T18:51:38.090Z,2.17
2023-01-30T18:54:05.896Z,2.14
2023-01-30T18:56:35.288Z,2.11
2023-01-30T18:59:06.263Z,2.09
2023-01-30T19:01:39.715Z,2.07
2023-01-30T19:04:09.998Z,1.99
2023-01-30T19:06:41.451Z,1.97
2023-01-30T19:09:13.262Z,1.94
2023-01-30T19:11:59.828Z,1.94
2023-01-30T19:14:27.478Z,1.93
2023-01-30T19:16:55.707Z,1.92
2023-01-30T19:19:23.593Z,1.90
2023-01-30T19:21:53.346Z,1.91
2023-01-30T19:24:21.363Z,1.92
2023-01-30T19:26:49.382Z,1.89
2023-01-30T19:29:19.296Z,1.91
2023-01-30T19:31:48.540Z,1.92
2023-01-30T19:34:16.534Z,1.96
2023-01-30T19:36:44.265Z,1.96
2023-01-30T19:39:12.056Z,1.98
2023-01-30T19:41:39.802Z,1.98
2023-01-30T19:44:09.259Z,1.98
2023-01-30T19:46:37.610Z,1.94
2023-01-30T19:49:05.969Z,1.93
2023-01-30T19:51:35.684Z,1.91
2023-01-30T19:54:06.308Z,1.90
2023-01-30T19:56:34.654Z,1.88
2023-01-30T19:59:03.365Z,1.88
2023-01-30T20:01:33.953Z,1.88
2023-01-30T20:04:05.384Z,1.86
2023-01-30T20:06:34.491Z,1.89
2023-01-30T20:09:07.786Z,1.92
2023-01-30T20:11:37.478Z,1.89
2023-01-30T20:14:07.634Z,1.93
2023-01-30T20:16:36.822Z,1.95
2023-01-30T20:19:12.878Z,1.97
2023-01-30T20:21:40.786Z,2.00
2023-01-30T20:24:10.697Z,2.00
2023-01-30T20:26:40.621Z,2.03
2023-01-30T20:29:10.582Z,2.09
2023-01-30T20:31:41.757Z,2.09
2023-01-30T20:34:12.992Z,2.12
2023-01-30T20:36:40.979Z,2.13
2023-01-30T20:39:09.492Z,2.14
2023-01-30T20:41:38.793Z,2.12
2023-01-30T20:44:09.423Z,2.14
2023-01-30T20:46:42.728Z,2.15
2023-01-30T20:49:19.858Z,2.17
2023-01-30T20:51:51.300Z,2.17
2023-01-30T20:54:21.684Z,2.20
2023-01-30T20:56:52.181Z,2.19
2023-01-30T20:59:25.017Z,2.19
2023-01-30T21:01:54.163Z,2.17
2023-01-30T21:04:23.953Z,2.14
2023-01-30T21:06:51.812Z,2.07
2023-01-30T21:09:22.574Z,2.01
2023-01-30T21:11:52.327Z,2.00
2023-01-30T21:14:20.295Z,2.00
2023-01-30T21:16:49.050Z,2.00
2023-01-30T21:19:18.367Z,2.01
2023-01-30T21:21:51.630Z,2.01
2023-01-30T21:24:22.799Z,2.02
2023-01-30T21:26:50.834Z,1.99
2023-01-30T21:29:21.067Z,1.97
2023-01-30T21:31:48.886Z,2.02
2023-01-30T21:34:17.062Z,2.04
2023-01-30T21:36:44.783Z,2.07
2023-01-30T21:39:32.974Z,2.09
2023-01-30T21:42:21.367Z,2.15
2023-01-30T21:44:50.619Z,2.22
2023-01-30T21:47:18.309Z,2.26
2023-01-30T21:49:46.769Z,2.28
2023-01-30T21:52:14.446Z,2.29
2023-01-30T21:54:42.160Z,2.30
2023-01-30T21:57:09.832Z,2.27
2023-01-30T21:59:37.685Z,2.27
2023-01-30T22:02:05.506Z,2.21
2023-01-30T22:04:36.458Z,2.20
2023-01-30T22:07:06.783Z,2.12
2023-01-30T22:09:34.981Z,2.11
2023-01-30T22:12:02.698Z,2.06
2023-01-30T22:14:30.424Z,2.04
2023-01-30T22:16:58.234Z,2.02
2023-01-30T22:19:25.883Z,2.02
2023-01-30T22:21:53.856Z,2.02
2023-01-30T22:24:21.693Z,1.98
2023-01-30T22:26:49.414Z,1.92
2023-01-30T22:29:19.156Z,1.93
2023-01-30T22:31:47.035Z,1.89
2023-01-30T22:34:14.827Z,1.87
2023-01-30T22:36:42.580Z,1.81
2023-01-30T22:39:10.430Z,1.78
2023-01-30T22:41:38.663Z,1.72
2023-01-30T22:44:09.840Z,1.66
2023-01-30T22:46:40.248Z,1.65
2023-01-30T22:49:09.913Z,1.62
2023-01-30T22:51:39.887Z,1.59
2023-01-30T22:54:11.561Z,1.58
2023-01-30T22:56:41.841Z,1.52
2023-01-30T22:59:10.003Z,1.48
2023-01-30T23:01:40.314Z,1.47
2023-01-30T23:04:16.579Z,1.45
2023-01-30T23:06:45.060Z,1.39
2023-01-30T23:09:17.001Z,1.32
2023-01-30T23:12:10.576Z,1.34
2023-01-30T23:14:39.388Z,1.30
2023-01-30T23:17:28.318Z,1.31
2023-01-30T23:19:56.147Z,1.29
2023-01-30T23:22:24.473Z,1.28
2023-01-30T23:24:52.210Z,1.24
2023-01-30T23:27:20.909Z,1.23
2023-01-30T23:29:48.990Z,1.19
2023-01-30T23:32:20.170Z,1.19
2023-01-30T23:34:48.813Z,1.18
2023-01-30T23:37:16.993Z,1.15
2023-01-30T23:39:45.144Z,1.13
2023-01-30T23:42:12.888Z,1.13
2023-01-30T23:44:40.770Z,1.11
2023-01-30T23:47:08.385Z,1.10
2023-01-30T23:49:36.375Z,1.05
2023-01-30T23:52:04.052Z,1.04
2023-01-30T23:54:31.764Z,1.04
2023-01-30T23:56:59.396Z,1.01
2023-01-30T23:59:27.087Z,1.02
